Time;durP1;ratioP1;P1;durP2;ratioP2;P2;SDS_P1;SDS_P2;PMS_P1;PMS_P2;Temp;Humidity;BMP_temperature;BMP_pressure;BME280_temperature;BME280_humidity;BME280_pressure;Samples;Min_cycle;Max_cycle;Signal;HPM_P1;HPM_P2
2022/09/09 00:02:10;;;;;;;3.30;3.10;;;;;;;16.88;79.28;98201.60;433171;1270;101369;-40
2022/09/09 00:12:16;;;;;;;3.90;3.50;;;;;;;16.71;79.25;98201.52;432764;1270;108929;-40
2022/09/09 00:42:45;;;;;;;4.80;3.30;;;;;;;16.32;79.53;98214.71;432902;1270;109016;-40
2022/09/09 00:52:57;;;;;;;6.00;3.70;;;;;;;16.13;79.54;98221.27;432780;1271;98773;-40
2022/09/09 01:03:19;;;;;;;9.70;5.00;;;;;;;16.00;79.84;98224.91;432554;1270;108722;-40
2022/09/09 01:13:30;;;;;;;7.80;5.40;;;;;;;15.91;79.77;98238.84;432765;1270;98348;-40
2022/09/09 01:23:46;;;;;;;8.30;5.40;;;;;;;15.89;80.13;98249.13;433428;1261;112388;-41
2022/09/09 01:33:53;;;;;;;9.70;7.00;;;;;;;15.88;80.21;98259.48;432334;1271;109346;-40
2022/09/09 01:44:00;;;;;;;8.30;6.90;;;;;;;15.86;80.24;98268.50;432385;1268;99235;-40
2022/09/09 01:54:08;;;;;;;7.80;7.10;;;;;;;15.92;80.43;98273.02;432110;1271;108768;-40
2022/09/09 02:04:23;;;;;;;8.60;7.80;;;;;;;15.95;80.59;98267.98;432567;1270;99243;-40
2022/09/09 02:14:37;;;;;;;10.00;8.80;;;;;;;15.96;80.64;98271.98;432695;1271;111251;-41
2022/09/09 02:34:57;;;;;;;12.20;7.50;;;;;;;16.28;80.83;98280.36;432255;1270;99909;-41
2022/09/09 02:45:03;;;;;;;10.40;8.50;;;;;;;16.46;80.75;98295.32;432861;1271;108004;-40
2022/09/09 02:55:12;;;;;;;10.00;8.70;;;;;;;16.49;80.71;98300.20;433005;1269;99235;-40
2022/09/09 03:05:18;;;;;;;12.50;10.00;;;;;;;16.56;80.83;98305.56;433133;1270;112640;-40
2022/09/09 03:15:28;;;;;;;19.30;14.40;;;;;;;16.52;80.58;98311.72;432818;1270;109537;-40
2022/09/09 03:35:48;;;;;;;23.60;16.10;;;;;;;16.50;80.53;98330.61;432799;1270;108801;-41
2022/09/09 03:56:02;;;;;;;26.20;17.40;;;;;;;16.32;80.91;98336.42;432936;1270;111439;-40
2022/09/09 04:06:12;;;;;;;29.20;16.40;;;;;;;16.23;81.04;98342.23;433104;1270;108933;-41
2022/09/09 04:16:19;;;;;;;23.30;16.10;;;;;;;16.14;81.10;98349.58;432690;1270;98889;-40
2022/09/09 04:26:27;;;;;;;25.10;17.90;;;;;;;16.09;81.16;98340.56;432734;1270;108982;-40
2022/09/09 04:46:41;;;;;;;20.50;16.20;;;;;;;16.15;81.25;98357.09;432742;1270;112336;-39
2022/09/09 04:56:48;;;;;;;19.30;15.00;;;;;;;16.35;81.33;98355.94;432741;1270;108685;-39
2022/09/09 05:06:55;;;;;;;21.40;16.50;;;;;;;16.52;80.97;98355.80;432839;1270;99231;-41
2022/09/09 05:17:02;;;;;;;27.50;19.00;;;;;;;16.71;81.19;98356.31;432520;1270;108806;-41
2022/09/09 05:27:11;;;;;;;19.90;16.50;;;;;;;17.48;81.02;98367.96;432321;1270;99235;-41
2022/09/09 05:37:18;;;;;;;20.00;16.60;;;;;;;18.30;80.55;98373.20;433088;1270;112025;-39
2022/09/09 05:57:33;;;;;;;17.00;14.70;;;;;;;20.40;79.94;98383.52;433114;1271;97985;-39
2022/09/09 06:07:42;;;;;;;15.80;13.20;;;;;;;21.32;78.51;98386.79;431960;1270;1414210;-39
2022/09/09 06:17:54;;;;;;;14.30;11.80;;;;;;;22.18;77.58;98384.52;432447;1270;99360;-40
2022/09/09 06:28:02;;;;;;;10.50;9.40;;;;;;;22.87;76.29;98390.50;432937;1270;111704;-42
2022/09/09 06:38:09;;;;;;;9.20;8.30;;;;;;;23.43;75.11;98390.36;432816;1270;108852;-41
2022/09/09 06:48:16;;;;;;;6.30;5.70;;;;;;;23.98;73.74;98401.19;433237;1269;98175;-40
2022/09/09 06:58:23;;;;;;;5.40;4.90;;;;;;;24.29;72.24;98400.60;432365;1270;109015;-41
2022/09/09 07:18:38;;;;;;;4.20;3.30;;;;;;;24.35;70.67;98409.74;433107;1269;112507;-40
2022/09/09 07:28:45;;;;;;;3.60;3.40;;;;;;;24.23;69.53;98407.84;433256;1269;109537;-40
2022/09/09 07:38:55;;;;;;;2.50;2.20;;;;;;;24.03;68.64;98405.64;433498;1270;98917;-40
2022/09/09 07:49:03;;;;;;;2.90;2.70;;;;;;;23.59;68.04;98397.24;432667;1270;108908;-40
2022/09/09 07:59:11;;;;;;;2.50;2.10;;;;;;;23.56;68.26;98401.65;432482;1270;99244;-41
2022/09/09 08:09:19;;;;;;;2.60;2.40;;;;;;;23.75;67.79;98409.25;433241;1269;112514;-42
2022/09/09 08:19:29;;;;;;;2.90;2.30;;;;;;;24.02;67.07;98421.48;433374;1270;107756;-40
2022/09/09 08:29:37;;;;;;;3.20;2.10;;;;;;;24.28;66.82;98429.14;433078;1270;99216;-41
2022/09/09 08:39:44;;;;;;;4.30;1.60;;;;;;;24.33;65.48;98423.92;432523;1270;109132;-40
2022/09/09 08:49:50;;;;;;;;;;;;;;;24.18;64.69;98426.64;432690;1270;98024;-41
2022/09/09 08:59:57;;;;;;;3.40;1.60;;;;;;;23.95;64.25;98424.84;433181;1269;112393;-41
2022/09/09 09:10:03;;;;;;;1.70;1.30;;;;;;;24.05;64.02;98422.38;433524;1269;108761;-41
2022/09/09 09:20:24;;;;;;;5.10;1.50;;;;;;;23.71;63.29;98421.59;433124;1270;99270;-41
2022/09/09 09:30:29;;;;;;;2.40;1.50;;;;;;;23.81;63.03;98432.42;433340;1270;108845;-41
2022/09/09 09:40:37;;;;;;;1.90;1.60;;;;;;;23.87;62.43;98432.73;433230;1269;99385;-40
2022/09/09 09:50:47;;;;;;;0.90;0.90;;;;;;;24.28;62.06;98434.04;433223;1270;112480;-41
2022/09/09 10:00:55;;;;;;;3.70;1.00;;;;;;;24.02;60.88;98442.95;433323;1270;109029;-40
2022/09/09 10:11:06;;;;;;;0.90;0.90;;;;;;;23.37;61.05;98446.58;433287;1270;99267;-41
2022/09/09 10:21:21;;;;;;;1.60;1.00;;;;;;;23.32;61.41;98447.70;433160;1270;108795;-41
2022/09/09 10:31:35;;;;;;;1.10;1.10;;;;;;;23.60;61.28;98449.92;433348;1270;97995;-41
2022/09/09 10:41:50;;;;;;;1.20;1.10;;;;;;;24.01;61.01;98443.85;433314;1269;112353;-41
2022/09/09 10:51:56;;;;;;;2.00;1.10;;;;;;;24.16;60.45;98449.95;433077;1269;108884;-41
2022/09/09 11:02:12;;;;;;;5.30;1.30;;;;;;;24.08;59.79;98457.84;433143;1270;99124;-41
2022/09/09 11:12:21;;;;;;;2.40;1.50;;;;;;;23.83;59.24;98462.58;433026;1269;108801;-40
2022/09/09 11:22:30;;;;;;;1.40;1.20;;;;;;;23.61;59.21;98460.78;433282;1268;98872;-43
2022/09/09 11:33:08;;;;;;;2.30;1.30;;;;;;;23.83;59.36;98458.28;432366;1270;112352;-41
2022/09/09 11:43:16;;;;;;;1.50;1.20;;;;;;;23.84;58.29;98464.69;433161;1269;108962;-40
2022/09/09 11:53:22;;;;;;;2.00;1.40;;;;;;;24.03;58.14;98468.91;433154;1270;99295;-41
2022/09/09 12:03:40;;;;;;;2.30;1.40;;;;;;;24.12;57.95;98466.73;433149;1270;108954;-41
2022/09/09 12:13:53;;;;;;;2.70;2.30;;;;;;;24.12;57.44;98469.20;433253;1270;99282;-41
2022/09/09 12:24:08;;;;;;;2.40;1.20;;;;;;;24.28;57.35;98458.08;433414;1270;112586;-41
2022/09/09 12:34:16;;;;;;;2.10;1.20;;;;;;;24.26;56.75;98458.30;433298;1269;108904;-41
2022/09/09 12:44:23;;;;;;;0.80;0.80;;;;;;;24.03;56.34;98452.46;433589;1269;99247;-41
2022/09/09 12:54:31;;;;;;;1.40;1.20;;;;;;;23.62;56.13;98448.33;433337;1269;109010;-42
2022/09/09 13:04:38;;;;;;;2.40;1.60;;;;;;;23.63;56.27;98455.98;433081;1270;99231;-41
2022/09/09 13:14:43;;;;;;;;;;;;;;;23.84;56.12;98462.30;433290;1270;112810;-41
2022/09/09 13:25:02;;;;;;;3.00;1.50;;;;;;;23.83;56.05;98456.23;433223;1270;108907;-40
2022/09/09 13:35:23;;;;;;;5.00;1.50;;;;;;;23.75;56.22;98457.05;432791;1270;99257;-41
2022/09/09 13:45:30;;;;;;;1.60;1.50;;;;;;;24.11;56.07;98450.40;433288;1270;109077;-41
2022/09/09 14:05:46;;;;;;;2.40;1.50;;;;;;;23.71;55.40;98426.89;433123;1269;112138;-41
2022/09/09 14:15:50;;;;;;;;;;;;;;;23.55;55.22;98417.46;433295;1270;107826;-41
2022/09/09 14:25:58;;;;;;;1.40;1.30;;;;;;;23.32;55.20;98419.15;432521;1270;98811;-41
2022/09/09 14:36:02;;;;;;;3.60;1.60;;;;;;;23.12;55.17;98420.20;432431;1271;108898;-40
2022/09/09 14:46:12;;;;;;;1.70;1.20;;;;;;;22.93;55.07;98414.70;432548;1271;99247;-41
2022/09/09 15:06:31;;;;;;;1.30;1.20;;;;;;;22.63;55.70;98413.97;432596;1270;108891;-39
2022/09/09 15:16:40;;;;;;;1.70;1.10;;;;;;;22.52;56.09;98411.83;432651;1270;99273;-39
2022/09/09 15:26:47;;;;;;;5.30;1.30;;;;;;;22.46;55.92;98409.77;432513;1270;108949;-39
2022/09/09 15:47:01;;;;;;;4.10;1.50;;;;;;;22.24;55.76;98408.02;432472;1270;112387;-41
2022/09/09 15:57:09;;;;;;;7.10;1.50;;;;;;;22.07;56.69;98407.40;432172;1270;107428;-41
2022/09/09 16:07:16;;;;;;;2.70;1.50;;;;;;;21.74;57.36;98407.05;432271;1270;99322;-40
2022/09/09 16:17:22;;;;;;;7.40;1.60;;;;;;;21.39;58.46;98415.20;432318;1270;108466;-40
2022/09/09 16:27:29;;;;;;;5.90;2.50;;;;;;;20.94;58.73;98409.65;432553;1270;99247;-40
2022/09/09 16:37:36;;;;;;;6.20;2.30;;;;;;;20.63;59.30;98407.73;432314;1270;112514;-41
2022/09/09 16:47:43;;;;;;;7.30;2.90;;;;;;;20.34;60.01;98399.53;432220;1270;108948;-40
2022/09/09 16:57:51;;;;;;;12.40;8.20;;;;;;;19.94;60.88;98397.02;432704;1270;99244;-40
2022/09/09 17:18:05;;;;;;;5.90;3.20;;;;;;;19.04;62.57;98413.39;432491;1270;98020;-41
2022/09/09 17:28:12;;;;;;;9.30;3.50;;;;;;;18.79;63.60;98418.20;432560;1270;112523;-41
2022/09/09 17:38:18;;;;;;;7.50;3.60;;;;;;;18.63;64.52;98429.19;432508;1270;106390;-41
2022/09/09 17:48:27;;;;;;;9.30;4.90;;;;;;;18.46;65.08;98430.66;432828;1270;98053;-41
2022/09/09 17:58:32;;;;;;;;;;;;;;;18.05;65.43;98435.38;432628;1270;109242;-41
2022/09/09 18:08:40;;;;;;;11.90;6.90;;;;;;;17.61;66.35;98440.67;431511;1270;1624842;-41
2022/09/09 18:28:58;;;;;;;14.30;6.50;;;;;;;17.32;67.17;98446.40;432252;1270;108930;-40
2022/09/09 18:39:07;;;;;;;14.10;6.70;;;;;;;17.26;67.75;98449.90;432515;1270;99290;-40
2022/09/09 18:49:15;;;;;;;10.50;6.50;;;;;;;17.38;68.35;98451.70;432296;1270;108804;-42
2022/09/09 18:59:24;;;;;;;13.20;8.90;;;;;;;17.46;68.80;98444.30;432686;1270;99267;-39
2022/09/09 19:09:33;;;;;;;16.20;7.40;;;;;;;17.25;68.88;98449.96;432721;1270;112171;-40
2022/09/09 19:29:47;;;;;;;19.10;9.90;;;;;;;17.15;69.76;98453.87;432850;1270;99230;-40
2022/09/09 19:39:54;;;;;;;17.80;11.60;;;;;;;17.20;69.92;98450.90;432649;1270;109059;-40
2022/09/09 19:50:04;;;;;;;25.20;13.80;;;;;;;17.15;70.34;98452.64;432537;1270;98060;-40
2022/09/09 20:00:13;;;;;;;32.20;18.10;;;;;;;16.89;70.18;98448.46;432528;1269;112403;-40
2022/09/09 20:10:22;;;;;;;28.40;17.60;;;;;;;16.78;70.62;98446.90;432592;1271;108814;-40
2022/09/09 20:20:29;;;;;;;31.20;18.30;;;;;;;16.79;70.99;98451.38;432717;1271;99142;-40
2022/09/09 20:40:43;;;;;;;33.00;21.00;;;;;;;16.76;71.74;98454.66;432522;1271;97957;-40
2022/09/09 20:50:50;;;;;;;30.50;18.40;;;;;;;16.60;71.97;98455.34;432629;1271;112455;-40
2022/09/09 21:00:59;;;;;;;28.90;18.60;;;;;;;16.62;72.23;98454.75;432572;1271;107995;-40
2022/09/09 21:11:05;;;;;;;29.40;16.50;;;;;;;16.59;72.98;98452.88;432517;1270;99305;-40
2022/09/09 21:21:13;;;;;;;28.30;15.60;;;;;;;16.75;73.23;98449.85;432529;1270;108853;-40
2022/09/09 21:31:21;;;;;;;23.50;14.20;;;;;;;16.80;73.41;98453.58;432609;1271;99254;-40
2022/09/09 21:41:35;;;;;;;21.60;12.40;;;;;;;16.83;73.72;98456.66;432807;1271;112812;-40
2022/09/09 21:51:42;;;;;;;19.80;12.70;;;;;;;16.64;73.44;98457.20;432219;1271;109646;-40
2022/09/09 22:01:49;;;;;;;23.30;13.20;;;;;;;16.44;73.59;98456.55;432704;1270;99241;-41
2022/09/09 22:22:03;;;;;;;20.90;12.70;;;;;;;16.33;74.27;98459.96;432417;1270;99240;-40
2022/09/09 22:32:11;;;;;;;20.20;12.10;;;;;;;16.19;74.65;98453.86;432211;1270;112543;-40
2022/09/09 22:42:18;;;;;;;14.90;11.70;;;;;;;16.20;74.76;98443.23;432454;1270;108735;-40
2022/09/09 22:52:26;;;;;;;14.50;9.70;;;;;;;16.19;74.99;98432.77;432364;1270;98615;-39
2022/09/09 23:02:33;;;;;;;13.20;10.00;;;;;;;16.27;75.37;98429.61;432672;1271;107991;-40
2022/09/09 23:12:47;;;;;;;16.60;11.00;;;;;;;16.37;75.12;98428.04;432544;1270;99251;-42
2022/09/09 23:22:53;;;;;;;;;;;;;;;16.37;75.09;98427.62;432530;1270;112512;-40
2022/09/09 23:33:00;;;;;;;17.80;11.90;;;;;;;16.33;75.31;98420.95;432213;1270;108209;-39
2022/09/09 23:43:07;;;;;;;19.70;12.50;;;;;;;16.27;75.41;98414.82;432631;1270;99344;-39
2022/09/09 23:53:14;;;;;;;25.00;13.40;;;;;;;16.17;75.47;98409.95;432679;1269;109372;-39
